KALX/ALX METAR and TAF weather

Enter ICAO airport designator
Station Type Date Time Source
KALX METAR 2020/01/21 21:35 UTC NOAA

KALX 212135Z AUTO 02006KT 10SM CLR 05/M08 A3039 RMK AO2 T00501081


Station Type Date Time Source
KALX Decoded METAR 2020/01/21 21:35 UTC NOAA

Alexander City, Thomas C Russell Field Airport, AL, United States (KALX) 32-54-53N 085-57-46W
Jan 21, 2020 - 04:35 PM EST / 2020.01.21 2135 UTC
Wind: from the NNE (020 degrees) at 7 MPH (6 KT):0
Visibility: 10 mile(s):0
Sky conditions: clear
Temperature: 41.0 F (5.0 C)
Dew Point: 17.4 F (-8.1 C)
Relative Humidity: 38%
Pressure (altimeter): 30.39 in. Hg (1029 hPa)
ob: KALX 212135Z AUTO 02006KT 10SM CLR 05/M08 A3039 RMK AO2 T00501081
cycle: 21

Station Type Date Time Source
KALX TAF UTC NOAA

Error!

Example: see airport list